Anderson Acres, Nevada
Current Conditions -  °F | °C
As of 7:15 PM on Thursday 18 Dec 2014 (Local Time) from KRTS Reporting Station
Few Clouds Few Clouds  
Wind Chill:   Ceiling: Unl
Heat Index:   Visibility: 10mi
Dew Point: -2°   Wind: 3mph
Humidity: 75%   Direction: 360°N
Pressure: 30.13"   Gusts: NA
Location:  39.7378°N, 119.889°W
Report Text: KRTS 190315Z AUTO 36003KT 10SM FEW075 02/M02 A3013 RMK AO2
Loading
Personal Weather Stations






























Interactive Weather Map New forecast layout! Learn more

10-Day Weather Forecast

Advertisements
Track Severe Weather on mobile